sensor_id;sensor_type;location;lat;lon;timestamp;temperature;humidity
66271;DHT22;53063;39.614;8.814;2023-02-01T00:02:18;5.70;99.90
66271;DHT22;53063;39.614;8.814;2023-02-01T00:04:44;5.90;99.90
66271;DHT22;53063;39.614;8.814;2023-02-01T00:07:10;5.80;99.90
66271;DHT22;53063;39.614;8.814;2023-02-01T00:09:36;5.70;99.90
66271;DHT22;53063;39.614;8.814;2023-02-01T00:12:02;5.80;99.90
66271;DHT22;53063;39.614;8.814;2023-02-01T00:14:29;5.90;99.90
66271;DHT22;53063;39.614;8.814;2023-02-01T00:16:55;6.00;99.90
66271;DHT22;53063;39.614;8.814;2023-02-01T00:19:21;6.00;99.90
66271;DHT22;53063;39.614;8.814;2023-02-01T00:21:47;6.00;99.90
66271;DHT22;53063;39.614;8.814;2023-02-01T00:24:13;6.00;99.90
66271;DHT22;53063;39.614;8.814;2023-02-01T00:26:41;6.00;99.90
66271;DHT22;53063;39.614;8.814;2023-02-01T00:29:13;5.90;99.90
66271;DHT22;53063;39.614;8.814;2023-02-01T00:31:39;5.90;99.90
66271;DHT22;53063;39.614;8.814;2023-02-01T00:34:06;5.80;99.90
66271;DHT22;53063;39.614;8.814;2023-02-01T00:36:34;5.80;99.90
66271;DHT22;53063;39.614;8.814;2023-02-01T00:39:00;5.70;99.90
66271;DHT22;53063;39.614;8.814;2023-02-01T00:41:26;5.70;99.90
66271;DHT22;53063;39.614;8.814;2023-02-01T00:43:52;5.70;99.90
66271;DHT22;53063;39.614;8.814;2023-02-01T00:46:19;5.70;99.90
66271;DHT22;53063;39.614;8.814;2023-02-01T00:48:45;5.70;99.90
66271;DHT22;53063;39.614;8.814;2023-02-01T00:51:14;5.60;99.90
66271;DHT22;53063;39.614;8.814;2023-02-01T00:53:40;5.60;99.90
66271;DHT22;53063;39.614;8.814;2023-02-01T00:56:07;5.60;99.90
66271;DHT22;53063;39.614;8.814;2023-02-01T00:58:33;5.70;99.90
66271;DHT22;53063;39.614;8.814;2023-02-01T01:03:38;5.40;99.90
66271;DHT22;53063;39.614;8.814;2023-02-01T01:06:11;5.30;99.90
66271;DHT22;53063;39.614;8.814;2023-02-01T01:08:38;5.30;99.90
66271;DHT22;53063;39.614;8.814;2023-02-01T01:11:09;5.20;99.90
66271;DHT22;53063;39.614;8.814;2023-02-01T01:13:36;5.20;99.90
66271;DHT22;53063;39.614;8.814;2023-02-01T01:16:03;5.10;99.90
66271;DHT22;53063;39.614;8.814;2023-02-01T01:18:31;5.10;99.90
66271;DHT22;53063;39.614;8.814;2023-02-01T01:20:58;5.10;99.90
66271;DHT22;53063;39.614;8.814;2023-02-01T01:23:24;5.20;99.90
66271;DHT22;53063;39.614;8.814;2023-02-01T01:25:50;5.10;99.90
66271;DHT22;53063;39.614;8.814;2023-02-01T01:28:16;5.10;99.90
66271;DHT22;53063;39.614;8.814;2023-02-01T01:30:42;4.90;99.90
66271;DHT22;53063;39.614;8.814;2023-02-01T01:33:07;5.00;99.90
66271;DHT22;53063;39.614;8.814;2023-02-01T01:35:34;4.90;99.90
66271;DHT22;53063;39.614;8.814;2023-02-01T01:38:01;5.00;99.90
66271;DHT22;53063;39.614;8.814;2023-02-01T01:40:28;5.10;99.90
66271;DHT22;53063;39.614;8.814;2023-02-01T01:42:55;5.00;99.90
66271;DHT22;53063;39.614;8.814;2023-02-01T01:47:53;5.00;99.90
66271;DHT22;53063;39.614;8.814;2023-02-01T01:50:29;5.00;99.90
66271;DHT22;53063;39.614;8.814;2023-02-01T01:52:58;5.00;99.90
66271;DHT22;53063;39.614;8.814;2023-02-01T01:55:27;5.00;99.90
66271;DHT22;53063;39.614;8.814;2023-02-01T01:58:02;5.00;99.90
66271;DHT22;53063;39.614;8.814;2023-02-01T02:00:31;5.00;99.90
66271;DHT22;53063;39.614;8.814;2023-02-01T02:03:02;4.90;99.90
66271;DHT22;53063;39.614;8.814;2023-02-01T02:05:30;4.80;99.90
66271;DHT22;53063;39.614;8.814;2023-02-01T02:07:58;4.80;99.90
66271;DHT22;53063;39.614;8.814;2023-02-01T02:10:27;4.80;99.90
66271;DHT22;53063;39.614;8.814;2023-02-01T02:13:16;4.80;99.90
66271;DHT22;53063;39.614;8.814;2023-02-01T02:16:05;4.80;99.90
66271;DHT22;53063;39.614;8.814;2023-02-01T02:26:54;4.90;99.90
66271;DHT22;53063;39.614;8.814;2023-02-01T02:40:26;5.00;99.90
66271;DHT22;53063;39.614;8.814;2023-02-01T02:43:24;5.00;99.90
66271;DHT22;53063;39.614;8.814;2023-02-01T02:46:17;4.90;99.90
66271;DHT22;53063;39.614;8.814;2023-02-01T02:49:35;5.00;99.90
66271;DHT22;53063;39.614;8.814;2023-02-01T02:52:08;4.90;99.90
66271;DHT22;53063;39.614;8.814;2023-02-01T02:54:54;4.90;99.90
66271;DHT22;53063;39.614;8.814;2023-02-01T02:57:31;4.70;99.90
66271;DHT22;53063;39.614;8.814;2023-02-01T03:00:19;4.60;99.90
66271;DHT22;53063;39.614;8.814;2023-02-01T03:03:05;4.50;99.90
66271;DHT22;53063;39.614;8.814;2023-02-01T03:05:50;4.40;99.90
66271;DHT22;53063;39.614;8.814;2023-02-01T03:08:24;4.40;99.90
66271;DHT22;53063;39.614;8.814;2023-02-01T03:18:36;4.50;99.90
66271;DHT22;53063;39.614;8.814;2023-02-01T03:21:12;4.40;99.90
66271;DHT22;53063;39.614;8.814;2023-02-01T03:23:39;4.60;99.90
66271;DHT22;53063;39.614;8.814;2023-02-01T03:26:08;4.70;99.90
66271;DHT22;53063;39.614;8.814;2023-02-01T03:28:39;4.60;99.90
66271;DHT22;53063;39.614;8.814;2023-02-01T03:31:08;4.60;99.90
66271;DHT22;53063;39.614;8.814;2023-02-01T03:33:34;4.60;99.90
66271;DHT22;53063;39.614;8.814;2023-02-01T03:44:14;4.60;99.90
66271;DHT22;53063;39.614;8.814;2023-02-01T03:47:01;4.80;99.90
66271;DHT22;53063;39.614;8.814;2023-02-01T03:49:43;5.00;99.90
66271;DHT22;53063;39.614;8.814;2023-02-01T03:52:14;4.90;99.90
66271;DHT22;53063;39.614;8.814;2023-02-01T03:54:43;5.00;99.90
66271;DHT22;53063;39.614;8.814;2023-02-01T03:57:14;5.10;99.90
66271;DHT22;53063;39.614;8.814;2023-02-01T03:59:44;5.20;99.90
66271;DHT22;53063;39.614;8.814;2023-02-01T04:02:11;5.30;99.90
66271;DHT22;53063;39.614;8.814;2023-02-01T04:04:37;5.40;99.90
66271;DHT22;53063;39.614;8.814;2023-02-01T04:07:04;5.50;99.90
66271;DHT22;53063;39.614;8.814;2023-02-01T04:09:30;5.40;99.90
66271;DHT22;53063;39.614;8.814;2023-02-01T04:11:56;5.50;99.90
66271;DHT22;53063;39.614;8.814;2023-02-01T04:14:22;5.50;99.90
66271;DHT22;53063;39.614;8.814;2023-02-01T04:16:48;5.50;99.90
66271;DHT22;53063;39.614;8.814;2023-02-01T04:19:14;5.50;99.90
66271;DHT22;53063;39.614;8.814;2023-02-01T04:21:39;5.20;99.90
66271;DHT22;53063;39.614;8.814;2023-02-01T04:24:06;4.90;99.90
66271;DHT22;53063;39.614;8.814;2023-02-01T04:26:32;4.90;99.90
66271;DHT22;53063;39.614;8.814;2023-02-01T04:28:58;4.90;99.90
66271;DHT22;53063;39.614;8.814;2023-02-01T04:31:23;4.30;99.90
66271;DHT22;53063;39.614;8.814;2023-02-01T04:33:54;4.10;99.90
66271;DHT22;53063;39.614;8.814;2023-02-01T04:36:21;4.20;99.90
66271;DHT22;53063;39.614;8.814;2023-02-01T04:38:51;4.00;99.90
66271;DHT22;53063;39.614;8.814;2023-02-01T04:41:17;3.90;99.90
66271;DHT22;53063;39.614;8.814;2023-02-01T04:43:48;3.90;99.90
66271;DHT22;53063;39.614;8.814;2023-02-01T04:46:14;4.00;99.90
66271;DHT22;53063;39.614;8.814;2023-02-01T04:48:40;4.10;99.90
66271;DHT22;53063;39.614;8.814;2023-02-01T04:51:06;4.10;99.90
66271;DHT22;53063;39.614;8.814;2023-02-01T04:53:32;4.00;99.90
66271;DHT22;53063;39.614;8.814;2023-02-01T04:55:58;3.90;99.90
66271;DHT22;53063;39.614;8.814;2023-02-01T04:58:24;3.60;99.90
66271;DHT22;53063;39.614;8.814;2023-02-01T05:00:50;3.50;99.90
66271;DHT22;53063;39.614;8.814;2023-02-01T05:03:17;3.60;99.90
66271;DHT22;53063;39.614;8.814;2023-02-01T05:05:43;3.60;99.90
66271;DHT22;53063;39.614;8.814;2023-02-01T05:08:09;3.70;99.90
66271;DHT22;53063;39.614;8.814;2023-02-01T05:10:35;3.70;99.90
66271;DHT22;53063;39.614;8.814;2023-02-01T05:13:01;3.70;99.90
66271;DHT22;53063;39.614;8.814;2023-02-01T05:15:45;3.60;99.90
66271;DHT22;53063;39.614;8.814;2023-02-01T05:18:12;3.50;99.90
66271;DHT22;53063;39.614;8.814;2023-02-01T05:20:38;3.40;99.90
66271;DHT22;53063;39.614;8.814;2023-02-01T05:23:04;3.40;99.90
66271;DHT22;53063;39.614;8.814;2023-02-01T05:25:31;3.40;99.90
66271;DHT22;53063;39.614;8.814;2023-02-01T05:27:57;3.50;99.90
66271;DHT22;53063;39.614;8.814;2023-02-01T05:30:23;3.50;99.90
66271;DHT22;53063;39.614;8.814;2023-02-01T05:32:50;3.40;99.90
66271;DHT22;53063;39.614;8.814;2023-02-01T05:35:17;3.30;99.90
66271;DHT22;53063;39.614;8.814;2023-02-01T05:37:43;3.40;99.90
66271;DHT22;53063;39.614;8.814;2023-02-01T05:40:09;3.40;99.90
66271;DHT22;53063;39.614;8.814;2023-02-01T05:42:35;3.30;99.90
66271;DHT22;53063;39.614;8.814;2023-02-01T05:45:01;3.40;99.90
66271;DHT22;53063;39.614;8.814;2023-02-01T05:47:27;3.30;99.90
66271;DHT22;53063;39.614;8.814;2023-02-01T05:49:53;3.20;99.90
66271;DHT22;53063;39.614;8.814;2023-02-01T05:52:19;3.40;99.90
66271;DHT22;53063;39.614;8.814;2023-02-01T05:54:48;3.40;99.90
66271;DHT22;53063;39.614;8.814;2023-02-01T05:57:15;3.30;99.90
66271;DHT22;53063;39.614;8.814;2023-02-01T05:59:41;3.50;99.90
66271;DHT22;53063;39.614;8.814;2023-02-01T06:02:09;3.40;99.90
66271;DHT22;53063;39.614;8.814;2023-02-01T06:04:35;3.30;99.90
66271;DHT22;53063;39.614;8.814;2023-02-01T06:07:01;3.30;99.90
66271;DHT22;53063;39.614;8.814;2023-02-01T06:09:27;3.20;99.90
66271;DHT22;53063;39.614;8.814;2023-02-01T06:11:54;3.30;99.90
66271;DHT22;53063;39.614;8.814;2023-02-01T06:14:20;3.50;99.90
66271;DHT22;53063;39.614;8.814;2023-02-01T06:16:46;3.80;99.90
66271;DHT22;53063;39.614;8.814;2023-02-01T06:19:13;3.90;99.90
66271;DHT22;53063;39.614;8.814;2023-02-01T06:21:39;3.90;99.90
66271;DHT22;53063;39.614;8.814;2023-02-01T06:24:05;3.60;99.90
66271;DHT22;53063;39.614;8.814;2023-02-01T06:26:31;3.70;99.90
66271;DHT22;53063;39.614;8.814;2023-02-01T06:28:58;3.80;99.90
66271;DHT22;53063;39.614;8.814;2023-02-01T06:31:24;4.20;99.90
66271;DHT22;53063;39.614;8.814;2023-02-01T06:33:51;4.40;99.90
66271;DHT22;53063;39.614;8.814;2023-02-01T06:36:17;4.60;99.90
66271;DHT22;53063;39.614;8.814;2023-02-01T06:38:47;4.50;99.90
66271;DHT22;53063;39.614;8.814;2023-02-01T06:41:13;4.10;99.90
66271;DHT22;53063;39.614;8.814;2023-02-01T06:43:39;3.70;99.90
66271;DHT22;53063;39.614;8.814;2023-02-01T06:46:06;3.60;99.90
66271;DHT22;53063;39.614;8.814;2023-02-01T06:48:33;3.60;99.90
66271;DHT22;53063;39.614;8.814;2023-02-01T06:50:59;3.70;99.90
66271;DHT22;53063;39.614;8.814;2023-02-01T06:53:26;4.00;99.90
66271;DHT22;53063;39.614;8.814;2023-02-01T06:55:53;3.80;99.90
66271;DHT22;53063;39.614;8.814;2023-02-01T06:58:19;3.90;99.90
66271;DHT22;53063;39.614;8.814;2023-02-01T07:00:45;4.10;99.90
66271;DHT22;53063;39.614;8.814;2023-02-01T07:03:11;4.20;99.90
66271;DHT22;53063;39.614;8.814;2023-02-01T07:05:37;4.20;99.90
66271;DHT22;53063;39.614;8.814;2023-02-01T07:08:03;4.10;99.90
66271;DHT22;53063;39.614;8.814;2023-02-01T07:10:29;4.10;99.90
66271;DHT22;53063;39.614;8.814;2023-02-01T07:12:57;4.10;99.90
66271;DHT22;53063;39.614;8.814;2023-02-01T07:15:23;4.10;99.90
66271;DHT22;53063;39.614;8.814;2023-02-01T07:17:49;4.20;99.90
66271;DHT22;53063;39.614;8.814;2023-02-01T07:20:16;4.40;99.90
66271;DHT22;53063;39.614;8.814;2023-02-01T07:22:42;4.40;99.90
66271;DHT22;53063;39.614;8.814;2023-02-01T07:25:08;4.60;99.90
66271;DHT22;53063;39.614;8.814;2023-02-01T07:27:34;4.90;99.90
66271;DHT22;53063;39.614;8.814;2023-02-01T07:30:01;5.20;99.90
66271;DHT22;53063;39.614;8.814;2023-02-01T07:32:28;5.20;99.90
66271;DHT22;53063;39.614;8.814;2023-02-01T07:34:55;5.30;99.90
66271;DHT22;53063;39.614;8.814;2023-02-01T07:37:21;5.60;99.90
66271;DHT22;53063;39.614;8.814;2023-02-01T07:39:46;6.30;99.90
66271;DHT22;53063;39.614;8.814;2023-02-01T07:42:12;7.40;99.90
66271;DHT22;53063;39.614;8.814;2023-02-01T07:44:38;8.00;99.90
66271;DHT22;53063;39.614;8.814;2023-02-01T07:47:04;7.40;99.90
66271;DHT22;53063;39.614;8.814;2023-02-01T07:49:30;7.30;99.90
66271;DHT22;53063;39.614;8.814;2023-02-01T07:51:56;7.80;99.90
66271;DHT22;53063;39.614;8.814;2023-02-01T07:54:22;9.30;99.90
66271;DHT22;53063;39.614;8.814;2023-02-01T07:56:47;10.10;99.90
66271;DHT22;53063;39.614;8.814;2023-02-01T07:59:13;10.90;99.90
66271;DHT22;53063;39.614;8.814;2023-02-01T08:01:40;11.70;94.90
66271;DHT22;53063;39.614;8.814;2023-02-01T08:04:07;11.90;91.20
66271;DHT22;53063;39.614;8.814;2023-02-01T08:06:34;13.70;90.70
66271;DHT22;53063;39.614;8.814;2023-02-01T08:09:00;14.90;79.50
66271;DHT22;53063;39.614;8.814;2023-02-01T08:11:27;15.10;74.60
66271;DHT22;53063;39.614;8.814;2023-02-01T08:13:53;15.10;73.40
66271;DHT22;53063;39.614;8.814;2023-02-01T08:16:20;15.60;72.00
66271;DHT22;53063;39.614;8.814;2023-02-01T08:18:47;14.50;72.50
66271;DHT22;53063;39.614;8.814;2023-02-01T08:21:24;15.80;74.00
66271;DHT22;53063;39.614;8.814;2023-02-01T08:23:50;16.40;66.90
66271;DHT22;53063;39.614;8.814;2023-02-01T08:26:24;17.40;64.60
66271;DHT22;53063;39.614;8.814;2023-02-01T08:28:53;16.50;62.90
66271;DHT22;53063;39.614;8.814;2023-02-01T08:31:22;16.70;65.50
66271;DHT22;53063;39.614;8.814;2023-02-01T08:33:51;17.50;61.60
66271;DHT22;53063;39.614;8.814;2023-02-01T08:36:17;18.60;58.60
66271;DHT22;53063;39.614;8.814;2023-02-01T08:38:44;18.80;56.00
66271;DHT22;53063;39.614;8.814;2023-02-01T08:41:17;18.60;57.10
66271;DHT22;53063;39.614;8.814;2023-02-01T08:43:44;18.20;58.30
66271;DHT22;53063;39.614;8.814;2023-02-01T08:46:10;18.20;58.70
66271;DHT22;53063;39.614;8.814;2023-02-01T08:48:37;19.70;58.90
66271;DHT22;53063;39.614;8.814;2023-02-01T08:51:05;19.40;56.30
66271;DHT22;53063;39.614;8.814;2023-02-01T08:53:32;19.80;52.40
66271;DHT22;53063;39.614;8.814;2023-02-01T08:55:58;18.50;54.80
66271;DHT22;53063;39.614;8.814;2023-02-01T08:58:24;19.30;54.30
66271;DHT22;53063;39.614;8.814;2023-02-01T09:00:50;20.70;52.20
66271;DHT22;53063;39.614;8.814;2023-02-01T09:03:16;21.50;48.20
66271;DHT22;53063;39.614;8.814;2023-02-01T09:05:42;19.80;51.80
66271;DHT22;53063;39.614;8.814;2023-02-01T09:08:09;20.30;50.40
66271;DHT22;53063;39.614;8.814;2023-02-01T09:10:36;20.10;49.70
66271;DHT22;53063;39.614;8.814;2023-02-01T09:13:01;18.50;53.30
66271;DHT22;53063;39.614;8.814;2023-02-01T09:15:30;19.40;51.50
66271;DHT22;53063;39.614;8.814;2023-02-01T09:17:56;20.00;49.40
66271;DHT22;53063;39.614;8.814;2023-02-01T09:20:22;19.40;49.30
66271;DHT22;53063;39.614;8.814;2023-02-01T09:22:54;19.60;49.90
66271;DHT22;53063;39.614;8.814;2023-02-01T09:25:20;20.80;46.10
66271;DHT22;53063;39.614;8.814;2023-02-01T09:27:46;20.90;45.90
66271;DHT22;53063;39.614;8.814;2023-02-01T09:30:12;20.60;46.70
66271;DHT22;53063;39.614;8.814;2023-02-01T09:32:38;21.90;44.40
66271;DHT22;53063;39.614;8.814;2023-02-01T09:35:04;21.30;44.40
66271;DHT22;53063;39.614;8.814;2023-02-01T09:37:30;21.70;45.50
66271;DHT22;53063;39.614;8.814;2023-02-01T09:39:56;21.00;45.40
66271;DHT22;53063;39.614;8.814;2023-02-01T09:48:13;20.50;46.40
66271;DHT22;53063;39.614;8.814;2023-02-01T09:50:43;20.10;48.00
66271;DHT22;53063;39.614;8.814;2023-02-01T09:55:55;17.70;53.60
66271;DHT22;53063;39.614;8.814;2023-02-01T09:58:32;18.30;52.10
66271;DHT22;53063;39.614;8.814;2023-02-01T10:01:01;20.40;51.20
66271;DHT22;53063;39.614;8.814;2023-02-01T10:03:30;22.50;48.30
66271;DHT22;53063;39.614;8.814;2023-02-01T10:31:43;24.30;43.90
66271;DHT22;53063;39.614;8.814;2023-02-01T10:34:26;23.60;42.70
66271;DHT22;53063;39.614;8.814;2023-02-01T10:37:02;24.50;41.20
66271;DHT22;53063;39.614;8.814;2023-02-01T10:39:33;24.10;42.20
66271;DHT22;53063;39.614;8.814;2023-02-01T10:41:59;24.00;41.30
66271;DHT22;53063;39.614;8.814;2023-02-01T10:44:27;22.20;44.20
66271;DHT22;53063;39.614;8.814;2023-02-01T10:46:55;21.70;47.80
66271;DHT22;53063;39.614;8.814;2023-02-01T10:49:35;19.80;48.80
66271;DHT22;53063;39.614;8.814;2023-02-01T10:58:00;18.50;54.50
66271;DHT22;53063;39.614;8.814;2023-02-01T11:00:27;18.30;55.90
66271;DHT22;53063;39.614;8.814;2023-02-01T11:02:54;18.40;56.10
66271;DHT22;53063;39.614;8.814;2023-02-01T11:05:20;18.30;54.80
66271;DHT22;53063;39.614;8.814;2023-02-01T11:07:53;18.10;54.70
66271;DHT22;53063;39.614;8.814;2023-02-01T11:10:38;18.00;55.00
66271;DHT22;53063;39.614;8.814;2023-02-01T11:13:15;17.80;56.50
66271;DHT22;53063;39.614;8.814;2023-02-01T11:15:46;17.30;57.60
66271;DHT22;53063;39.614;8.814;2023-02-01T11:18:20;17.20;59.50
66271;DHT22;53063;39.614;8.814;2023-02-01T11:20:50;17.50;59.00
66271;DHT22;53063;39.614;8.814;2023-02-01T11:23:24;17.00;58.10
66271;DHT22;53063;39.614;8.814;2023-02-01T11:25:59;16.60;58.90
66271;DHT22;53063;39.614;8.814;2023-02-01T11:28:29;16.60;60.20
66271;DHT22;53063;39.614;8.814;2023-02-01T11:30:59;16.60;59.60
66271;DHT22;53063;39.614;8.814;2023-02-01T11:33:31;16.30;59.70
66271;DHT22;53063;39.614;8.814;2023-02-01T11:36:10;16.30;61.00
66271;DHT22;53063;39.614;8.814;2023-02-01T11:38:38;16.20;62.60
66271;DHT22;53063;39.614;8.814;2023-02-01T11:43:57;17.60;59.00
66271;DHT22;53063;39.614;8.814;2023-02-01T11:46:34;17.80;56.60
66271;DHT22;53063;39.614;8.814;2023-02-01T11:49:20;17.70;57.10
66271;DHT22;53063;39.614;8.814;2023-02-01T11:57:27;17.50;58.80
66271;DHT22;53063;39.614;8.814;2023-02-01T12:19:27;16.90;55.10
66271;DHT22;53063;39.614;8.814;2023-02-01T12:44:16;15.50;61.70
66271;DHT22;53063;39.614;8.814;2023-02-01T12:46:52;15.40;59.90
66271;DHT22;53063;39.614;8.814;2023-02-01T12:52:02;15.40;60.70
66271;DHT22;53063;39.614;8.814;2023-02-01T12:54:50;15.40;59.40
66271;DHT22;53063;39.614;8.814;2023-02-01T12:57:28;15.30;60.60
66271;DHT22;53063;39.614;8.814;2023-02-01T12:59:56;15.50;59.50
66271;DHT22;53063;39.614;8.814;2023-02-01T13:02:39;15.60;60.40
66271;DHT22;53063;39.614;8.814;2023-02-01T13:05:14;16.10;58.60
66271;DHT22;53063;39.614;8.814;2023-02-01T13:07:59;16.30;57.20
66271;DHT22;53063;39.614;8.814;2023-02-01T13:18:25;15.40;59.60
66271;DHT22;53063;39.614;8.814;2023-02-01T13:21:25;15.60;60.60
66271;DHT22;53063;39.614;8.814;2023-02-01T13:23:53;15.60;60.00
66271;DHT22;53063;39.614;8.814;2023-02-01T13:26:19;15.40;62.00
66271;DHT22;53063;39.614;8.814;2023-02-01T13:28:51;15.30;63.20
66271;DHT22;53063;39.614;8.814;2023-02-01T13:42:59;14.40;68.40
66271;DHT22;53063;39.614;8.814;2023-02-01T13:45:34;14.40;67.60
66271;DHT22;53063;39.614;8.814;2023-02-01T13:48:05;14.30;69.10
66271;DHT22;53063;39.614;8.814;2023-02-01T13:50:36;14.40;69.30
66271;DHT22;53063;39.614;8.814;2023-02-01T13:53:17;14.40;69.50
66271;DHT22;53063;39.614;8.814;2023-02-01T13:56:01;14.20;70.30
66271;DHT22;53063;39.614;8.814;2023-02-01T13:58:44;14.20;71.00
66271;DHT22;53063;39.614;8.814;2023-02-01T14:03:56;13.80;72.00
66271;DHT22;53063;39.614;8.814;2023-02-01T14:14:45;13.70;75.40
66271;DHT22;53063;39.614;8.814;2023-02-01T14:17:29;13.70;75.50
66271;DHT22;53063;39.614;8.814;2023-02-01T14:23:03;13.90;76.10
66271;DHT22;53063;39.614;8.814;2023-02-01T14:25:33;14.10;75.60
66271;DHT22;53063;39.614;8.814;2023-02-01T14:27:59;14.00;76.20
66271;DHT22;53063;39.614;8.814;2023-02-01T14:30:25;14.00;75.90
66271;DHT22;53063;39.614;8.814;2023-02-01T14:32:51;14.10;76.50
66271;DHT22;53063;39.614;8.814;2023-02-01T14:35:27;14.60;74.10
66271;DHT22;53063;39.614;8.814;2023-02-01T14:37:59;14.80;72.90
66271;DHT22;53063;39.614;8.814;2023-02-01T14:40:28;14.70;74.00
66271;DHT22;53063;39.614;8.814;2023-02-01T14:42:55;14.40;75.40
66271;DHT22;53063;39.614;8.814;2023-02-01T14:58:43;14.70;75.10
66271;DHT22;53063;39.614;8.814;2023-02-01T15:01:28;14.50;75.40
66271;DHT22;53063;39.614;8.814;2023-02-01T15:04:05;14.00;77.90
66271;DHT22;53063;39.614;8.814;2023-02-01T15:06:53;13.50;78.80
66271;DHT22;53063;39.614;8.814;2023-02-01T15:09:29;13.40;79.30
66271;DHT22;53063;39.614;8.814;2023-02-01T15:12:18;13.00;80.50
66271;DHT22;53063;39.614;8.814;2023-02-01T15:15:02;13.00;81.00
66271;DHT22;53063;39.614;8.814;2023-02-01T15:17:31;12.90;81.60
66271;DHT22;53063;39.614;8.814;2023-02-01T15:20:18;12.90;81.60
66271;DHT22;53063;39.614;8.814;2023-02-01T15:22:59;13.00;81.40
66271;DHT22;53063;39.614;8.814;2023-02-01T15:25:35;13.00;80.80
66271;DHT22;53063;39.614;8.814;2023-02-01T15:28:02;12.90;80.90
66271;DHT22;53063;39.614;8.814;2023-02-01T15:30:31;12.70;81.30
66271;DHT22;53063;39.614;8.814;2023-02-01T15:38:20;12.50;85.10
66271;DHT22;53063;39.614;8.814;2023-02-01T15:44:04;12.40;86.10
66271;DHT22;53063;39.614;8.814;2023-02-01T15:48:59;12.20;86.70
66271;DHT22;53063;39.614;8.814;2023-02-01T15:51:30;12.20;85.60
66271;DHT22;53063;39.614;8.814;2023-02-01T15:54:06;12.10;85.80
66271;DHT22;53063;39.614;8.814;2023-02-01T15:56:39;12.10;85.80
66271;DHT22;53063;39.614;8.814;2023-02-01T15:59:16;12.10;86.00
66271;DHT22;53063;39.614;8.814;2023-02-01T16:01:42;12.10;85.60
66271;DHT22;53063;39.614;8.814;2023-02-01T16:06:56;12.10;86.50
66271;DHT22;53063;39.614;8.814;2023-02-01T16:09:34;12.00;86.40
66271;DHT22;53063;39.614;8.814;2023-02-01T16:12:01;11.90;87.40
66271;DHT22;53063;39.614;8.814;2023-02-01T16:14:29;11.80;87.80
66271;DHT22;53063;39.614;8.814;2023-02-01T16:16:57;11.90;88.40
66271;DHT22;53063;39.614;8.814;2023-02-01T16:19:23;11.90;88.40
66271;DHT22;53063;39.614;8.814;2023-02-01T16:21:57;11.80;89.00
66271;DHT22;53063;39.614;8.814;2023-02-01T16:24:24;11.90;88.80
66271;DHT22;53063;39.614;8.814;2023-02-01T16:26:51;11.80;88.90
66271;DHT22;53063;39.614;8.814;2023-02-01T16:29:17;11.70;89.50
66271;DHT22;53063;39.614;8.814;2023-02-01T16:31:43;11.70;89.90
66271;DHT22;53063;39.614;8.814;2023-02-01T16:34:16;11.70;90.20
66271;DHT22;53063;39.614;8.814;2023-02-01T16:36:43;11.60;90.30
66271;DHT22;53063;39.614;8.814;2023-02-01T16:39:13;11.60;90.70
66271;DHT22;53063;39.614;8.814;2023-02-01T16:41:39;11.50;90.40
66271;DHT22;53063;39.614;8.814;2023-02-01T16:44:06;11.50;90.70
66271;DHT22;53063;39.614;8.814;2023-02-01T16:46:35;11.60;91.00
66271;DHT22;53063;39.614;8.814;2023-02-01T16:49:01;11.50;90.90
66271;DHT22;53063;39.614;8.814;2023-02-01T16:51:32;11.40;91.30
66271;DHT22;53063;39.614;8.814;2023-02-01T16:53:59;11.40;91.60
66271;DHT22;53063;39.614;8.814;2023-02-01T16:56:31;11.40;91.80
66271;DHT22;53063;39.614;8.814;2023-02-01T16:58:57;11.30;92.00
66271;DHT22;53063;39.614;8.814;2023-02-01T17:01:24;11.30;92.00
66271;DHT22;53063;39.614;8.814;2023-02-01T17:03:50;11.20;92.30
66271;DHT22;53063;39.614;8.814;2023-02-01T17:06:24;11.20;92.50
66271;DHT22;53063;39.614;8.814;2023-02-01T17:08:55;11.10;92.90
66271;DHT22;53063;39.614;8.814;2023-02-01T17:11:23;11.00;93.00
66271;DHT22;53063;39.614;8.814;2023-02-01T17:13:50;10.90;93.20
66271;DHT22;53063;39.614;8.814;2023-02-01T17:16:22;10.90;93.40
66271;DHT22;53063;39.614;8.814;2023-02-01T17:18:59;10.90;94.00
66271;DHT22;53063;39.614;8.814;2023-02-01T17:21:27;11.10;94.30
66271;DHT22;53063;39.614;8.814;2023-02-01T17:23:55;11.00;93.90
66271;DHT22;53063;39.614;8.814;2023-02-01T17:26:23;11.00;94.50
66271;DHT22;53063;39.614;8.814;2023-02-01T17:28:49;10.90;94.60
66271;DHT22;53063;39.614;8.814;2023-02-01T17:31:16;11.00;94.90
66271;DHT22;53063;39.614;8.814;2023-02-01T17:33:42;11.10;94.60
66271;DHT22;53063;39.614;8.814;2023-02-01T17:36:16;11.10;94.00
66271;DHT22;53063;39.614;8.814;2023-02-01T17:38:43;11.10;94.10
66271;DHT22;53063;39.614;8.814;2023-02-01T17:41:11;11.10;93.70
66271;DHT22;53063;39.614;8.814;2023-02-01T17:43:37;10.90;93.70
66271;DHT22;53063;39.614;8.814;2023-02-01T17:46:14;10.90;94.40
66271;DHT22;53063;39.614;8.814;2023-02-01T17:48:41;11.00;94.50
66271;DHT22;53063;39.614;8.814;2023-02-01T17:51:18;10.90;94.90
66271;DHT22;53063;39.614;8.814;2023-02-01T17:53:45;10.90;95.20
66271;DHT22;53063;39.614;8.814;2023-02-01T17:56:19;10.80;95.50
66271;DHT22;53063;39.614;8.814;2023-02-01T17:58:46;10.80;96.00
66271;DHT22;53063;39.614;8.814;2023-02-01T18:01:15;10.80;95.90
66271;DHT22;53063;39.614;8.814;2023-02-01T18:03:41;10.70;96.20
66271;DHT22;53063;39.614;8.814;2023-02-01T18:06:16;10.70;96.80
66271;DHT22;53063;39.614;8.814;2023-02-01T18:08:43;10.70;97.20
66271;DHT22;53063;39.614;8.814;2023-02-01T18:11:20;10.70;97.40
66271;DHT22;53063;39.614;8.814;2023-02-01T18:13:47;10.70;97.70
66271;DHT22;53063;39.614;8.814;2023-02-01T18:16:21;10.60;98.10
66271;DHT22;53063;39.614;8.814;2023-02-01T18:18:48;10.60;98.40
66271;DHT22;53063;39.614;8.814;2023-02-01T18:21:18;10.70;98.00
66271;DHT22;53063;39.614;8.814;2023-02-01T18:23:45;10.60;98.40
66271;DHT22;53063;39.614;8.814;2023-02-01T18:26:12;10.60;98.70
66271;DHT22;53063;39.614;8.814;2023-02-01T18:28:38;10.50;99.90
66271;DHT22;53063;39.614;8.814;2023-02-01T18:31:05;10.60;99.90
66271;DHT22;53063;39.614;8.814;2023-02-01T18:33:31;10.60;99.90
66271;DHT22;53063;39.614;8.814;2023-02-01T18:35:57;10.60;99.50
66271;DHT22;53063;39.614;8.814;2023-02-01T18:38:23;10.60;99.10
66271;DHT22;53063;39.614;8.814;2023-02-01T18:40:52;10.60;98.80
66271;DHT22;53063;39.614;8.814;2023-02-01T18:43:19;10.60;98.30
66271;DHT22;53063;39.614;8.814;2023-02-01T18:45:46;10.60;97.70
66271;DHT22;53063;39.614;8.814;2023-02-01T18:48:13;10.60;97.60
66271;DHT22;53063;39.614;8.814;2023-02-01T18:50:41;10.60;97.60
66271;DHT22;53063;39.614;8.814;2023-02-01T18:53:18;10.50;97.70
66271;DHT22;53063;39.614;8.814;2023-02-01T18:55:48;10.40;97.90
66271;DHT22;53063;39.614;8.814;2023-02-01T18:58:15;10.40;98.20
66271;DHT22;53063;39.614;8.814;2023-02-01T19:00:43;10.20;98.40
66271;DHT22;53063;39.614;8.814;2023-02-01T19:03:13;10.20;99.40
66271;DHT22;53063;39.614;8.814;2023-02-01T19:05:39;10.20;99.90
66271;DHT22;53063;39.614;8.814;2023-02-01T19:08:08;10.10;99.90